Terminal Aerodrome Forecast
Issued by NWS Austin/San Antonio, TX

Home | Current Version | Previous Version | Text Only | Print | Product List | Glossary On
Versions: 1 2 3 4 5 6 7 8 9 10 11 12 13 14 15 16 17 18 19 20
000
FTUS44 KEWX 212300
TAFDRT
TAF
KDRT 212323Z 2200/2224 13008KT P6SM VCSH FEW080 SCT150
     FM220200 12009KT P6SM FEW250
     FM221100 12010KT P6SM BKN020
     FM221600 13014G24KT P6SM SCT040=

USA.gov is the U.S. government's official web portal to all federal, state and local government web resources and services.